AirNav   Get $300 off a Bose A20
 
 1555 users online  

CL84 Ahlem Farms Airport
Hilmar, California, USA

GOING TO HILMAR?


FAA INFORMATION EFFECTIVE 25 APRIL 2019

Location

FAA Identifier: CL84
Lat/Long: 37-23-17.7720N / 120-55-38.7380W
37-23.296200N / 120-55.645633W
37.3882700 / -120.9274272
(estimated)
Elevation: 73 ft. / 22 m (estimated)
Variation: 16E (1985)
From city: 5 miles SW of HILMAR, CA
Time zone: UTC -7 (UTC -8 during Standard Time)
Zip code: 95324

Airport Operations

Airport use: Private use. Permission required prior to landing
Activation date: 02/1987
Control tower: no
ARTCC: OAKLAND CENTER
FSS: RANCHO MURIETA FLIGHT SERVICE STATION
Attendance: UNATNDD
Wind indicator: yes
Segmented circle: no
Lights: ACTVT PERI LGTS RY 08/26 - 5 CLICKS ON 122.7

Airport Communications

WX ASOS at MOD (14 nm N): 127.7 (209-572-0914)
WX AWOS-3 at MER (17 nm E): 124.475 (209-725-0104)
WX AWOS-3 at LSN (20 nm S): 118.675 (209-827-7084)

Nearby radio navigation aids

VOR radial/distance  VOR name  Freq  Var
MODr157/14.4MODESTO VOR/DME114.6017E
HYPr277/27.1EL NIDO VOR/DME114.2015E

 
NDB name  Hdg/Dist  Freq  Var  ID
TRACY112/30.620315ETCY - -.-. -.--

Airport Services

Runway Information

Runway 8/26

Dimensions: 2617 x 40 ft. / 798 x 12 m
Surface: asphalt
Runway edge lights: PERI
Runway edge markings: RWY MRKD WITH R
RUNWAY 8  RUNWAY 26
Traffic pattern: leftleft
Displaced threshold: 300 ft.200 ft.
Markings: NSTDNSTD
Obstructions: 15 ft. road5 ft. fence

Airport Ownership and Management from official FAA records

Ownership: Privately-owned
Owner: FRED HONORE
24343 WILLIAMS AVE.
HILMAR, CA 95324
Phone 209-634-6520
Manager: FRED HONORE
24343 WILLIAMS AVE.
HILMAR, CA 95324
Phone 209-634-6520

Airport Operational Statistics

Aircraft based on the field: 1
Single engine airplanes: 1
    

Additional Remarks

FOR CD CTC NORCAL APCH AT 916-361-0516.

Instrument Procedures

There are no published instrument procedures at CL84.

Some nearby airports with instrument procedures:

KMOD - Modesto City-County Airport-Harry Sham Field (14 nm N)
KMER - Castle Airport (17 nm E)
KLSN - Los Banos Municipal Airport (20 nm S)
KMCE - Merced Regional Airport/Macready Field (21 nm E)
O27 - Oakdale Airport (23 nm N)
 
Loc | Ops | Rwys | IFR | FBO | Links
Com | Nav | Svcs | Stats | Notes
Area around CL84 (Ahlem Farms Airport)
 
Road maps at: MapQuest Bing Google
 
Aerial photo
No photo
 
Sectional chart

 
Airport distance calculator
Flying to Ahlem Farms Airport? Find the distance to fly.

From to CL84

Sunrise and sunset
Times for 20-May-2019
 Local
(UTC-7)
 Zulu
(UTC)
Morning civil twilight05:2212:22
Sunrise05:5212:52
Sunset20:0903:09
Evening civil twilight20:3803:38

Current date and time
Zulu (UTC)  20-May-2019 15:57:09
Local (UTC-7)  20-May-2019 08:57:09
 
METAR
KMOD 
14nm N 
201553Z 31007KT 10SM OVC008 12/10 A2996 RMK AO2 CIG 006V010 SLP146 T01170100
KMER 
17nm E 
201445Z 36006KT 6SM HZ SKC 12/12 A2996
KMCE 
21nm E 
201553Z AUTO 33006KT 10SM FEW011 13/10 A2996 RMK AO2 SLP145 T01280100
TAF
KMOD 
14nm N 
201347Z 2014/2112 32005KT 5SM BR SCT005 TEMPO 2014/2016 1SM BR BKN003 FM201700 30007KT P6SM SCT250 FM202300 32012KT P6SM BKN250 FM210500 30007KT P6SM BKN120
KMER 
17nm E 
201129Z 2012/2112 00000KT P6SM SKC TEMPO 2012/2015 1 1/2SM BR FM201900 32008KT P6SM SCT040 FM210600 32008KT P6SM SCT040 BKN100
NOTAMs
Click for the latest NOTAMs
NOTAMs are issued by the DoD/FAA and will open in a separate window not controlled by AirNav.

 

 
 

Would you like to see your business listed on this page?

 If your business provides an interesting product or service to pilots, flight crews, aircraft, or users of the Ahlem Farms Airport, you should consider listing it here.  To start the listing process, click on the button below
 
Add a business
 

Other Pages about Ahlem Farms Airport

Update a link
 
Copyright © AirNav, LLC. All rights reserved. Privacy Policy  Contact